sensor_id;sensor_type;location;lat;lon;timestamp;P1;durP1;ratioP1;P2;durP2;ratioP2
2698;SDS011;1359;51.798;12.174;2023-05-07T00:01:41;21.23;;;14.77;;
2698;SDS011;1359;51.798;12.174;2023-05-07T00:04:06;16.33;;;13.50;;
2698;SDS011;1359;51.798;12.174;2023-05-07T00:06:32;15.80;;;13.23;;
2698;SDS011;1359;51.798;12.174;2023-05-07T00:08:58;15.53;;;12.00;;
2698;SDS011;1359;51.798;12.174;2023-05-07T00:11:24;17.17;;;12.90;;
2698;SDS011;1359;51.798;12.174;2023-05-07T00:13:50;16.13;;;13.10;;
2698;SDS011;1359;51.798;12.174;2023-05-07T00:16:16;16.60;;;12.50;;
2698;SDS011;1359;51.798;12.174;2023-05-07T00:18:41;16.83;;;13.50;;
2698;SDS011;1359;51.798;12.174;2023-05-07T00:21:06;17.10;;;13.37;;
2698;SDS011;1359;51.798;12.174;2023-05-07T00:23:32;13.73;;;11.87;;
2698;SDS011;1359;51.798;12.174;2023-05-07T00:25:57;14.70;;;12.30;;
2698;SDS011;1359;51.798;12.174;2023-05-07T00:28:23;13.27;;;11.83;;
2698;SDS011;1359;51.798;12.174;2023-05-07T00:30:48;14.10;;;11.30;;
2698;SDS011;1359;51.798;12.174;2023-05-07T00:33:13;16.77;;;12.70;;
2698;SDS011;1359;51.798;12.174;2023-05-07T00:35:39;11.50;;;10.30;;
2698;SDS011;1359;51.798;12.174;2023-05-07T00:38:04;12.03;;;10.70;;
2698;SDS011;1359;51.798;12.174;2023-05-07T00:40:29;14.03;;;11.00;;
2698;SDS011;1359;51.798;12.174;2023-05-07T00:42:55;12.97;;;10.77;;
2698;SDS011;1359;51.798;12.174;2023-05-07T00:45:23;11.53;;;10.33;;
2698;SDS011;1359;51.798;12.174;2023-05-07T00:47:51;14.90;;;11.37;;
2698;SDS011;1359;51.798;12.174;2023-05-07T00:50:16;14.10;;;12.40;;
2698;SDS011;1359;51.798;12.174;2023-05-07T00:52:42;12.00;;;10.40;;
2698;SDS011;1359;51.798;12.174;2023-05-07T00:55:07;11.10;;;9.97;;
2698;SDS011;1359;51.798;12.174;2023-05-07T00:57:36;15.67;;;8.57;;
2698;SDS011;1359;51.798;12.174;2023-05-07T01:00:03;17.20;;;10.17;;
2698;SDS011;1359;51.798;12.174;2023-05-07T01:02:28;13.60;;;10.60;;
2698;SDS011;1359;51.798;12.174;2023-05-07T01:04:54;13.03;;;11.37;;
2698;SDS011;1359;51.798;12.174;2023-05-07T01:07:20;12.13;;;10.20;;
2698;SDS011;1359;51.798;12.174;2023-05-07T01:09:45;13.80;;;10.13;;
2698;SDS011;1359;51.798;12.174;2023-05-07T01:12:10;12.27;;;10.33;;
2698;SDS011;1359;51.798;12.174;2023-05-07T01:14:36;12.93;;;9.57;;
2698;SDS011;1359;51.798;12.174;2023-05-07T01:17:02;10.70;;;9.60;;
2698;SDS011;1359;51.798;12.174;2023-05-07T01:19:28;13.33;;;9.70;;
2698;SDS011;1359;51.798;12.174;2023-05-07T01:21:54;10.70;;;8.70;;
2698;SDS011;1359;51.798;12.174;2023-05-07T01:24:23;12.47;;;10.57;;
2698;SDS011;1359;51.798;12.174;2023-05-07T01:26:48;13.87;;;10.30;;
2698;SDS011;1359;51.798;12.174;2023-05-07T01:29:15;11.80;;;10.20;;
2698;SDS011;1359;51.798;12.174;2023-05-07T01:31:41;10.80;;;9.33;;
2698;SDS011;1359;51.798;12.174;2023-05-07T01:34:07;10.30;;;9.13;;
2698;SDS011;1359;51.798;12.174;2023-05-07T01:36:33;18.50;;;11.00;;
2698;SDS011;1359;51.798;12.174;2023-05-07T01:38:59;11.13;;;10.03;;
2698;SDS011;1359;51.798;12.174;2023-05-07T01:41:25;12.43;;;10.67;;
2698;SDS011;1359;51.798;12.174;2023-05-07T01:43:50;13.27;;;11.50;;
2698;SDS011;1359;51.798;12.174;2023-05-07T01:46:17;14.23;;;11.80;;
2698;SDS011;1359;51.798;12.174;2023-05-07T01:48:42;15.77;;;12.60;;
2698;SDS011;1359;51.798;12.174;2023-05-07T01:51:11;17.00;;;13.40;;
2698;SDS011;1359;51.798;12.174;2023-05-07T01:53:37;18.13;;;14.07;;
2698;SDS011;1359;51.798;12.174;2023-05-07T01:56:02;18.30;;;13.27;;
2698;SDS011;1359;51.798;12.174;2023-05-07T01:58:28;20.27;;;14.47;;
2698;SDS011;1359;51.798;12.174;2023-05-07T02:00:54;16.50;;;14.33;;
2698;SDS011;1359;51.798;12.174;2023-05-07T02:03:19;17.87;;;14.00;;
2698;SDS011;1359;51.798;12.174;2023-05-07T02:05:52;19.73;;;14.10;;
2698;SDS011;1359;51.798;12.174;2023-05-07T02:08:26;19.07;;;14.77;;
2698;SDS011;1359;51.798;12.174;2023-05-07T02:10:51;18.57;;;13.53;;
2698;SDS011;1359;51.798;12.174;2023-05-07T02:13:17;16.90;;;14.40;;
2698;SDS011;1359;51.798;12.174;2023-05-07T02:15:42;24.30;;;15.00;;
2698;SDS011;1359;51.798;12.174;2023-05-07T02:18:09;19.00;;;14.93;;
2698;SDS011;1359;51.798;12.174;2023-05-07T02:20:35;21.83;;;16.13;;
2698;SDS011;1359;51.798;12.174;2023-05-07T02:23:01;18.20;;;14.87;;
2698;SDS011;1359;51.798;12.174;2023-05-07T02:25:28;16.87;;;12.97;;
2698;SDS011;1359;51.798;12.174;2023-05-07T02:27:55;20.20;;;14.00;;
2698;SDS011;1359;51.798;12.174;2023-05-07T02:30:24;17.20;;;14.23;;
2698;SDS011;1359;51.798;12.174;2023-05-07T02:32:52;21.10;;;15.07;;
2698;SDS011;1359;51.798;12.174;2023-05-07T02:35:17;19.03;;;14.33;;
2698;SDS011;1359;51.798;12.174;2023-05-07T02:37:43;19.10;;;14.03;;
2698;SDS011;1359;51.798;12.174;2023-05-07T02:40:08;18.93;;;14.33;;
2698;SDS011;1359;51.798;12.174;2023-05-07T02:42:34;16.13;;;13.20;;
2698;SDS011;1359;51.798;12.174;2023-05-07T02:44:59;18.33;;;14.77;;
2698;SDS011;1359;51.798;12.174;2023-05-07T02:47:25;20.13;;;15.37;;
2698;SDS011;1359;51.798;12.174;2023-05-07T02:49:54;18.00;;;14.00;;
2698;SDS011;1359;51.798;12.174;2023-05-07T02:52:20;18.37;;;14.50;;
2698;SDS011;1359;51.798;12.174;2023-05-07T02:54:45;20.43;;;14.30;;
2698;SDS011;1359;51.798;12.174;2023-05-07T02:57:10;18.77;;;14.53;;
2698;SDS011;1359;51.798;12.174;2023-05-07T02:59:36;21.23;;;14.23;;
2698;SDS011;1359;51.798;12.174;2023-05-07T03:02:01;20.00;;;14.70;;
2698;SDS011;1359;51.798;12.174;2023-05-07T03:04:27;16.33;;;14.53;;
2698;SDS011;1359;51.798;12.174;2023-05-07T03:06:52;18.97;;;12.20;;
2698;SDS011;1359;51.798;12.174;2023-05-07T03:09:17;24.57;;;14.70;;
2698;SDS011;1359;51.798;12.174;2023-05-07T03:11:43;20.10;;;15.17;;
2698;SDS011;1359;51.798;12.174;2023-05-07T03:14:08;20.93;;;15.40;;
2698;SDS011;1359;51.798;12.174;2023-05-07T03:16:34;17.33;;;14.63;;
2698;SDS011;1359;51.798;12.174;2023-05-07T03:18:59;17.97;;;13.77;;
2698;SDS011;1359;51.798;12.174;2023-05-07T03:21:25;20.80;;;14.47;;
2698;SDS011;1359;51.798;12.174;2023-05-07T03:23:51;21.60;;;14.10;;
2698;SDS011;1359;51.798;12.174;2023-05-07T03:26:16;15.97;;;13.67;;
2698;SDS011;1359;51.798;12.174;2023-05-07T03:28:43;16.63;;;12.77;;
2698;SDS011;1359;51.798;12.174;2023-05-07T03:31:11;14.00;;;12.23;;
2698;SDS011;1359;51.798;12.174;2023-05-07T03:33:39;15.63;;;13.73;;
2698;SDS011;1359;51.798;12.174;2023-05-07T03:36:14;16.93;;;13.17;;
2698;SDS011;1359;51.798;12.174;2023-05-07T03:38:39;18.47;;;13.00;;
2698;SDS011;1359;51.798;12.174;2023-05-07T03:41:05;22.13;;;12.83;;
2698;SDS011;1359;51.798;12.174;2023-05-07T03:43:30;18.93;;;13.63;;
2698;SDS011;1359;51.798;12.174;2023-05-07T03:46:02;16.53;;;12.63;;
2698;SDS011;1359;51.798;12.174;2023-05-07T03:48:28;17.67;;;13.73;;
2698;SDS011;1359;51.798;12.174;2023-05-07T03:50:57;16.20;;;13.23;;
2698;SDS011;1359;51.798;12.174;2023-05-07T03:53:22;15.97;;;12.80;;
2698;SDS011;1359;51.798;12.174;2023-05-07T03:55:47;16.37;;;12.87;;
2698;SDS011;1359;51.798;12.174;2023-05-07T03:58:13;18.80;;;13.37;;
2698;SDS011;1359;51.798;12.174;2023-05-07T04:00:38;14.83;;;11.50;;
2698;SDS011;1359;51.798;12.174;2023-05-07T04:03:15;16.53;;;12.17;;
2698;SDS011;1359;51.798;12.174;2023-05-07T04:05:41;13.40;;;11.30;;
2698;SDS011;1359;51.798;12.174;2023-05-07T04:08:06;15.80;;;12.27;;
2698;SDS011;1359;51.798;12.174;2023-05-07T04:10:38;14.73;;;11.90;;
2698;SDS011;1359;51.798;12.174;2023-05-07T04:13:08;11.13;;;9.63;;
2698;SDS011;1359;51.798;12.174;2023-05-07T04:15:35;15.97;;;12.07;;
2698;SDS011;1359;51.798;12.174;2023-05-07T04:18:00;14.50;;;11.93;;
2698;SDS011;1359;51.798;12.174;2023-05-07T04:20:26;13.67;;;11.10;;
2698;SDS011;1359;51.798;12.174;2023-05-07T04:22:57;17.00;;;11.77;;
2698;SDS011;1359;51.798;12.174;2023-05-07T04:25:23;14.70;;;10.80;;
2698;SDS011;1359;51.798;12.174;2023-05-07T04:27:52;16.37;;;12.00;;
2698;SDS011;1359;51.798;12.174;2023-05-07T04:30:17;22.73;;;12.60;;
2698;SDS011;1359;51.798;12.174;2023-05-07T04:32:43;14.50;;;11.43;;
2698;SDS011;1359;51.798;12.174;2023-05-07T04:35:09;15.70;;;12.00;;
2698;SDS011;1359;51.798;12.174;2023-05-07T04:37:35;17.00;;;10.83;;
2698;SDS011;1359;51.798;12.174;2023-05-07T04:40:02;17.20;;;11.93;;
2698;SDS011;1359;51.798;12.174;2023-05-07T04:42:29;14.67;;;11.60;;
2698;SDS011;1359;51.798;12.174;2023-05-07T04:44:55;19.07;;;11.60;;
2698;SDS011;1359;51.798;12.174;2023-05-07T04:47:22;15.10;;;11.80;;
2698;SDS011;1359;51.798;12.174;2023-05-07T04:49:47;16.67;;;12.97;;
2698;SDS011;1359;51.798;12.174;2023-05-07T04:52:13;16.17;;;11.03;;
2698;SDS011;1359;51.798;12.174;2023-05-07T04:54:38;15.93;;;11.50;;
2698;SDS011;1359;51.798;12.174;2023-05-07T04:57:05;12.93;;;9.90;;
2698;SDS011;1359;51.798;12.174;2023-05-07T04:59:30;14.70;;;12.43;;
2698;SDS011;1359;51.798;12.174;2023-05-07T05:01:57;12.13;;;10.50;;
2698;SDS011;1359;51.798;12.174;2023-05-07T05:04:23;13.40;;;11.10;;
2698;SDS011;1359;51.798;12.174;2023-05-07T05:06:48;11.50;;;10.20;;
2698;SDS011;1359;51.798;12.174;2023-05-07T05:09:14;12.40;;;9.67;;
2698;SDS011;1359;51.798;12.174;2023-05-07T05:11:41;14.50;;;11.23;;
2698;SDS011;1359;51.798;12.174;2023-05-07T05:14:06;12.00;;;10.73;;
2698;SDS011;1359;51.798;12.174;2023-05-07T05:16:31;10.73;;;8.83;;
2698;SDS011;1359;51.798;12.174;2023-05-07T05:18:57;13.10;;;10.00;;
2698;SDS011;1359;51.798;12.174;2023-05-07T05:21:22;11.97;;;9.80;;
2698;SDS011;1359;51.798;12.174;2023-05-07T05:23:51;9.50;;;8.00;;
2698;SDS011;1359;51.798;12.174;2023-05-07T05:26:20;11.13;;;8.43;;
2698;SDS011;1359;51.798;12.174;2023-05-07T05:28:46;8.57;;;7.60;;
2698;SDS011;1359;51.798;12.174;2023-05-07T05:31:12;8.07;;;7.27;;
2698;SDS011;1359;51.798;12.174;2023-05-07T05:33:39;8.57;;;7.67;;
2698;SDS011;1359;51.798;12.174;2023-05-07T05:36:06;8.43;;;7.60;;
2698;SDS011;1359;51.798;12.174;2023-05-07T05:38:32;9.23;;;7.60;;
2698;SDS011;1359;51.798;12.174;2023-05-07T05:40:57;10.50;;;7.50;;
2698;SDS011;1359;51.798;12.174;2023-05-07T05:43:23;9.40;;;8.33;;
2698;SDS011;1359;51.798;12.174;2023-05-07T05:45:48;9.40;;;7.77;;
2698;SDS011;1359;51.798;12.174;2023-05-07T05:48:13;8.70;;;7.80;;
2698;SDS011;1359;51.798;12.174;2023-05-07T05:50:39;10.37;;;9.50;;
2698;SDS011;1359;51.798;12.174;2023-05-07T05:53:05;8.47;;;7.37;;
2698;SDS011;1359;51.798;12.174;2023-05-07T05:55:32;7.30;;;6.30;;
2698;SDS011;1359;51.798;12.174;2023-05-07T05:57:58;6.40;;;5.80;;
2698;SDS011;1359;51.798;12.174;2023-05-07T06:00:24;7.20;;;6.50;;
2698;SDS011;1359;51.798;12.174;2023-05-07T06:02:58;8.20;;;6.70;;
2698;SDS011;1359;51.798;12.174;2023-05-07T06:05:24;7.13;;;6.40;;
2698;SDS011;1359;51.798;12.174;2023-05-07T06:07:52;9.67;;;6.27;;
2698;SDS011;1359;51.798;12.174;2023-05-07T06:10:17;9.67;;;6.40;;
2698;SDS011;1359;51.798;12.174;2023-05-07T06:12:43;6.13;;;5.53;;
2698;SDS011;1359;51.798;12.174;2023-05-07T06:15:09;7.20;;;6.50;;
2698;SDS011;1359;51.798;12.174;2023-05-07T06:17:35;7.40;;;6.10;;
2698;SDS011;1359;51.798;12.174;2023-05-07T06:20:01;6.20;;;5.50;;
2698;SDS011;1359;51.798;12.174;2023-05-07T06:22:26;7.43;;;5.77;;
2698;SDS011;1359;51.798;12.174;2023-05-07T06:24:53;7.93;;;7.13;;
2698;SDS011;1359;51.798;12.174;2023-05-07T06:27:19;8.00;;;6.10;;
2698;SDS011;1359;51.798;12.174;2023-05-07T06:29:45;7.30;;;6.37;;
2698;SDS011;1359;51.798;12.174;2023-05-07T06:32:14;11.40;;;8.10;;
2698;SDS011;1359;51.798;12.174;2023-05-07T06:34:41;10.30;;;7.43;;
2698;SDS011;1359;51.798;12.174;2023-05-07T06:37:07;7.23;;;6.40;;
2698;SDS011;1359;51.798;12.174;2023-05-07T06:39:51;8.27;;;6.63;;
2698;SDS011;1359;51.798;12.174;2023-05-07T06:42:16;8.50;;;7.57;;
2698;SDS011;1359;51.798;12.174;2023-05-07T06:44:45;7.20;;;6.50;;
2698;SDS011;1359;51.798;12.174;2023-05-07T06:47:12;6.90;;;6.20;;
2698;SDS011;1359;51.798;12.174;2023-05-07T06:49:39;8.70;;;7.23;;
2698;SDS011;1359;51.798;12.174;2023-05-07T06:52:04;11.90;;;6.93;;
2698;SDS011;1359;51.798;12.174;2023-05-07T06:54:30;7.67;;;6.40;;
2698;SDS011;1359;51.798;12.174;2023-05-07T06:56:55;7.40;;;6.57;;
2698;SDS011;1359;51.798;12.174;2023-05-07T06:59:23;7.30;;;6.70;;
2698;SDS011;1359;51.798;12.174;2023-05-07T07:01:49;9.47;;;7.47;;
2698;SDS011;1359;51.798;12.174;2023-05-07T07:04:14;13.80;;;9.60;;
2698;SDS011;1359;51.798;12.174;2023-05-07T07:06:42;11.60;;;8.73;;
2698;SDS011;1359;51.798;12.174;2023-05-07T07:09:10;10.60;;;8.03;;
2698;SDS011;1359;51.798;12.174;2023-05-07T07:11:35;6.37;;;5.73;;
2698;SDS011;1359;51.798;12.174;2023-05-07T07:14:01;6.80;;;6.20;;
2698;SDS011;1359;51.798;12.174;2023-05-07T07:16:28;9.37;;;5.63;;
2698;SDS011;1359;51.798;12.174;2023-05-07T07:18:54;6.50;;;5.90;;
2698;SDS011;1359;51.798;12.174;2023-05-07T07:21:19;5.90;;;5.40;;
2698;SDS011;1359;51.798;12.174;2023-05-07T07:23:45;6.37;;;5.70;;
2698;SDS011;1359;51.798;12.174;2023-05-07T07:26:11;6.40;;;5.80;;
2698;SDS011;1359;51.798;12.174;2023-05-07T07:28:41;5.53;;;4.73;;
2698;SDS011;1359;51.798;12.174;2023-05-07T07:31:07;6.43;;;5.57;;
2698;SDS011;1359;51.798;12.174;2023-05-07T07:33:32;6.43;;;5.50;;
2698;SDS011;1359;51.798;12.174;2023-05-07T07:35:57;6.73;;;5.13;;
2698;SDS011;1359;51.798;12.174;2023-05-07T07:38:23;7.20;;;4.83;;
2698;SDS011;1359;51.798;12.174;2023-05-07T07:40:48;7.23;;;5.20;;
2698;SDS011;1359;51.798;12.174;2023-05-07T07:43:14;5.50;;;5.00;;
2698;SDS011;1359;51.798;12.174;2023-05-07T07:45:39;6.60;;;5.27;;
2698;SDS011;1359;51.798;12.174;2023-05-07T07:48:05;6.20;;;5.40;;
2698;SDS011;1359;51.798;12.174;2023-05-07T07:50:34;7.20;;;4.90;;
2698;SDS011;1359;51.798;12.174;2023-05-07T07:52:59;7.13;;;6.00;;
2698;SDS011;1359;51.798;12.174;2023-05-07T07:55:25;6.10;;;5.60;;
2698;SDS011;1359;51.798;12.174;2023-05-07T07:57:53;9.33;;;6.63;;
2698;SDS011;1359;51.798;12.174;2023-05-07T08:00:18;7.47;;;6.77;;
2698;SDS011;1359;51.798;12.174;2023-05-07T08:02:47;7.60;;;6.80;;
2698;SDS011;1359;51.798;12.174;2023-05-07T08:05:20;6.70;;;6.00;;
2698;SDS011;1359;51.798;12.174;2023-05-07T08:07:47;7.87;;;7.10;;
2698;SDS011;1359;51.798;12.174;2023-05-07T08:10:18;8.70;;;7.40;;
2698;SDS011;1359;51.798;12.174;2023-05-07T08:12:50;8.70;;;6.80;;
2698;SDS011;1359;51.798;12.174;2023-05-07T08:15:16;8.80;;;6.13;;
2698;SDS011;1359;51.798;12.174;2023-05-07T08:17:41;8.00;;;7.13;;
2698;SDS011;1359;51.798;12.174;2023-05-07T08:20:07;8.70;;;7.47;;
2698;SDS011;1359;51.798;12.174;2023-05-07T08:22:34;7.43;;;6.57;;
2698;SDS011;1359;51.798;12.174;2023-05-07T08:24:59;10.10;;;8.00;;
2698;SDS011;1359;51.798;12.174;2023-05-07T08:27:25;6.53;;;5.83;;
2698;SDS011;1359;51.798;12.174;2023-05-07T08:29:51;9.03;;;7.63;;
2698;SDS011;1359;51.798;12.174;2023-05-07T08:32:17;7.50;;;6.80;;
2698;SDS011;1359;51.798;12.174;2023-05-07T08:34:43;7.90;;;7.00;;
2698;SDS011;1359;51.798;12.174;2023-05-07T08:37:08;10.97;;;9.10;;
2698;SDS011;1359;51.798;12.174;2023-05-07T08:39:34;12.43;;;9.80;;
2698;SDS011;1359;51.798;12.174;2023-05-07T08:42:01;17.23;;;10.17;;
2698;SDS011;1359;51.798;12.174;2023-05-07T08:44:29;14.90;;;10.57;;
2698;SDS011;1359;51.798;12.174;2023-05-07T08:46:58;12.70;;;9.37;;
2698;SDS011;1359;51.798;12.174;2023-05-07T08:49:24;14.13;;;8.93;;
2698;SDS011;1359;51.798;12.174;2023-05-07T08:51:51;12.13;;;10.23;;
2698;SDS011;1359;51.798;12.174;2023-05-07T08:54:18;11.00;;;9.37;;
2698;SDS011;1359;51.798;12.174;2023-05-07T08:56:44;16.00;;;9.97;;
2698;SDS011;1359;51.798;12.174;2023-05-07T08:59:10;19.27;;;12.00;;
2698;SDS011;1359;51.798;12.174;2023-05-07T09:01:35;21.67;;;12.60;;
2698;SDS011;1359;51.798;12.174;2023-05-07T09:04:01;11.70;;;9.17;;
2698;SDS011;1359;51.798;12.174;2023-05-07T09:06:28;14.23;;;10.90;;
2698;SDS011;1359;51.798;12.174;2023-05-07T09:08:54;22.67;;;12.93;;
2698;SDS011;1359;51.798;12.174;2023-05-07T09:11:24;12.30;;;10.60;;
2698;SDS011;1359;51.798;12.174;2023-05-07T09:13:55;13.00;;;10.70;;
2698;SDS011;1359;51.798;12.174;2023-05-07T09:16:22;23.13;;;15.80;;
2698;SDS011;1359;51.798;12.174;2023-05-07T09:18:48;14.10;;;10.37;;
2698;SDS011;1359;51.798;12.174;2023-05-07T09:21:16;12.53;;;10.60;;
2698;SDS011;1359;51.798;12.174;2023-05-07T09:23:41;18.30;;;11.57;;
2698;SDS011;1359;51.798;12.174;2023-05-07T09:26:07;11.77;;;8.70;;
2698;SDS011;1359;51.798;12.174;2023-05-07T09:28:38;18.87;;;11.30;;
2698;SDS011;1359;51.798;12.174;2023-05-07T09:31:03;16.43;;;11.80;;
2698;SDS011;1359;51.798;12.174;2023-05-07T09:33:29;13.40;;;12.00;;
2698;SDS011;1359;51.798;12.174;2023-05-07T09:35:56;11.67;;;9.80;;
2698;SDS011;1359;51.798;12.174;2023-05-07T09:38:21;11.30;;;9.77;;
2698;SDS011;1359;51.798;12.174;2023-05-07T09:43:37;13.50;;;9.53;;
2698;SDS011;1359;51.798;12.174;2023-05-07T09:46:09;11.97;;;10.10;;
2698;SDS011;1359;51.798;12.174;2023-05-07T09:48:37;11.43;;;8.90;;
2698;SDS011;1359;51.798;12.174;2023-05-07T09:51:03;13.77;;;10.33;;
2698;SDS011;1359;51.798;12.174;2023-05-07T09:53:33;11.70;;;10.20;;
2698;SDS011;1359;51.798;12.174;2023-05-07T09:56:01;14.47;;;11.30;;
2698;SDS011;1359;51.798;12.174;2023-05-07T09:58:28;11.83;;;9.77;;
2698;SDS011;1359;51.798;12.174;2023-05-07T10:00:54;14.63;;;10.50;;
2698;SDS011;1359;51.798;12.174;2023-05-07T10:03:20;11.40;;;9.10;;
2698;SDS011;1359;51.798;12.174;2023-05-07T10:05:55;11.40;;;9.67;;
2698;SDS011;1359;51.798;12.174;2023-05-07T10:08:21;9.20;;;8.30;;
2698;SDS011;1359;51.798;12.174;2023-05-07T10:10:50;10.63;;;9.13;;
2698;SDS011;1359;51.798;12.174;2023-05-07T10:13:20;12.63;;;8.83;;
2698;SDS011;1359;51.798;12.174;2023-05-07T10:15:49;12.40;;;9.60;;
2698;SDS011;1359;51.798;12.174;2023-05-07T10:18:15;10.57;;;9.33;;
2698;SDS011;1359;51.798;12.174;2023-05-07T10:20:45;11.10;;;9.93;;
2698;SDS011;1359;51.798;12.174;2023-05-07T10:23:12;15.33;;;10.43;;
2698;SDS011;1359;51.798;12.174;2023-05-07T10:25:42;19.30;;;12.80;;
2698;SDS011;1359;51.798;12.174;2023-05-07T10:28:15;9.23;;;8.23;;
2698;SDS011;1359;51.798;12.174;2023-05-07T10:30:58;7.77;;;6.87;;
2698;SDS011;1359;51.798;12.174;2023-05-07T10:33:29;13.10;;;9.30;;
2698;SDS011;1359;51.798;12.174;2023-05-07T10:36:00;12.73;;;9.77;;
2698;SDS011;1359;51.798;12.174;2023-05-07T10:38:28;11.03;;;7.80;;
2698;SDS011;1359;51.798;12.174;2023-05-07T10:40:54;11.00;;;8.77;;
2698;SDS011;1359;51.798;12.174;2023-05-07T10:43:20;14.30;;;10.47;;
2698;SDS011;1359;51.798;12.174;2023-05-07T10:46:10;9.00;;;8.10;;
2698;SDS011;1359;51.798;12.174;2023-05-07T10:51:22;13.43;;;8.80;;
2698;SDS011;1359;51.798;12.174;2023-05-07T10:54:39;14.83;;;9.73;;
2698;SDS011;1359;51.798;12.174;2023-05-07T10:56:47;14.20;;;10.27;;
2698;SDS011;1359;51.798;12.174;2023-05-07T11:01:55;17.70;;;11.57;;
2698;SDS011;1359;51.798;12.174;2023-05-07T11:04:28;13.93;;;11.60;;
2698;SDS011;1359;51.798;12.174;2023-05-07T11:15:07;12.67;;;10.50;;
2698;SDS011;1359;51.798;12.174;2023-05-07T11:17:54;14.20;;;11.30;;
2698;SDS011;1359;51.798;12.174;2023-05-07T11:20:20;12.53;;;10.50;;
2698;SDS011;1359;51.798;12.174;2023-05-07T11:22:51;15.20;;;10.83;;
2698;SDS011;1359;51.798;12.174;2023-05-07T11:25:43;11.03;;;9.50;;
2698;SDS011;1359;51.798;12.174;2023-05-07T11:28:17;10.67;;;9.67;;
2698;SDS011;1359;51.798;12.174;2023-05-07T11:30:48;10.93;;;9.63;;
2698;SDS011;1359;51.798;12.174;2023-05-07T11:33:17;12.47;;;9.87;;
2698;SDS011;1359;51.798;12.174;2023-05-07T11:35:42;10.90;;;9.80;;
2698;SDS011;1359;51.798;12.174;2023-05-07T11:38:10;11.27;;;10.03;;
2698;SDS011;1359;51.798;12.174;2023-05-07T11:40:50;11.40;;;9.50;;
2698;SDS011;1359;51.798;12.174;2023-05-07T11:43:16;10.83;;;9.83;;
2698;SDS011;1359;51.798;12.174;2023-05-07T11:45:41;13.57;;;10.47;;
2698;SDS011;1359;51.798;12.174;2023-05-07T11:48:07;10.03;;;9.03;;
2698;SDS011;1359;51.798;12.174;2023-05-07T11:50:32;9.73;;;8.77;;
2698;SDS011;1359;51.798;12.174;2023-05-07T11:52:57;11.47;;;9.40;;
2698;SDS011;1359;51.798;12.174;2023-05-07T11:55:24;12.40;;;9.30;;
2698;SDS011;1359;51.798;12.174;2023-05-07T11:57:50;11.27;;;8.90;;
2698;SDS011;1359;51.798;12.174;2023-05-07T12:00:15;11.80;;;10.00;;
2698;SDS011;1359;51.798;12.174;2023-05-07T12:02:41;11.90;;;7.17;;
2698;SDS011;1359;51.798;12.174;2023-05-07T12:05:07;13.67;;;10.60;;
2698;SDS011;1359;51.798;12.174;2023-05-07T12:07:35;10.20;;;8.57;;
2698;SDS011;1359;51.798;12.174;2023-05-07T12:10:04;9.57;;;7.63;;
2698;SDS011;1359;51.798;12.174;2023-05-07T12:12:30;7.80;;;6.50;;
2698;SDS011;1359;51.798;12.174;2023-05-07T12:14:55;8.47;;;7.67;;
2698;SDS011;1359;51.798;12.174;2023-05-07T12:17:20;13.53;;;8.87;;
2698;SDS011;1359;51.798;12.174;2023-05-07T12:19:46;7.57;;;6.83;;
2698;SDS011;1359;51.798;12.174;2023-05-07T12:22:12;9.87;;;8.40;;
2698;SDS011;1359;51.798;12.174;2023-05-07T12:27:09;9.27;;;8.37;;
2698;SDS011;1359;51.798;12.174;2023-05-07T12:29:34;9.40;;;7.33;;
2698;SDS011;1359;51.798;12.174;2023-05-07T12:31:59;9.23;;;8.20;;
2698;SDS011;1359;51.798;12.174;2023-05-07T12:34:25;11.37;;;8.90;;
2698;SDS011;1359;51.798;12.174;2023-05-07T12:36:51;9.77;;;8.03;;
2698;SDS011;1359;51.798;12.174;2023-05-07T12:39:16;9.23;;;8.40;;
2698;SDS011;1359;51.798;12.174;2023-05-07T12:41:57;10.50;;;9.50;;
2698;SDS011;1359;51.798;12.174;2023-05-07T12:44:29;12.90;;;8.53;;
2698;SDS011;1359;51.798;12.174;2023-05-07T12:46:54;11.97;;;9.47;;
2698;SDS011;1359;51.798;12.174;2023-05-07T12:49:19;9.50;;;8.37;;
2698;SDS011;1359;51.798;12.174;2023-05-07T12:51:48;9.70;;;8.70;;
2698;SDS011;1359;51.798;12.174;2023-05-07T12:54:14;11.50;;;10.40;;
2698;SDS011;1359;51.798;12.174;2023-05-07T12:56:39;12.07;;;9.60;;
2698;SDS011;1359;51.798;12.174;2023-05-07T12:59:04;9.67;;;8.57;;
2698;SDS011;1359;51.798;12.174;2023-05-07T13:01:30;11.00;;;9.60;;
2698;SDS011;1359;51.798;12.174;2023-05-07T13:03:58;11.20;;;9.30;;
2698;SDS011;1359;51.798;12.174;2023-05-07T13:06:25;9.67;;;8.27;;
2698;SDS011;1359;51.798;12.174;2023-05-07T13:08:51;17.40;;;9.97;;
2698;SDS011;1359;51.798;12.174;2023-05-07T13:11:16;11.00;;;9.83;;
2698;SDS011;1359;51.798;12.174;2023-05-07T13:13:42;11.70;;;9.37;;
2698;SDS011;1359;51.798;12.174;2023-05-07T13:16:08;11.20;;;9.00;;
2698;SDS011;1359;51.798;12.174;2023-05-07T13:18:33;12.43;;;10.17;;
2698;SDS011;1359;51.798;12.174;2023-05-07T13:20:59;12.80;;;10.47;;
2698;SDS011;1359;51.798;12.174;2023-05-07T13:23:25;11.17;;;9.60;;
2698;SDS011;1359;51.798;12.174;2023-05-07T13:25:51;11.13;;;9.57;;
2698;SDS011;1359;51.798;12.174;2023-05-07T13:28:19;10.70;;;9.63;;
2698;SDS011;1359;51.798;12.174;2023-05-07T13:30:45;13.73;;;10.40;;
2698;SDS011;1359;51.798;12.174;2023-05-07T13:33:10;12.97;;;10.43;;
2698;SDS011;1359;51.798;12.174;2023-05-07T13:35:36;10.27;;;9.13;;
2698;SDS011;1359;51.798;12.174;2023-05-07T13:38:01;10.80;;;8.83;;
2698;SDS011;1359;51.798;12.174;2023-05-07T13:40:27;11.17;;;9.63;;
2698;SDS011;1359;51.798;12.174;2023-05-07T13:42:52;11.40;;;9.27;;
2698;SDS011;1359;51.798;12.174;2023-05-07T13:45:18;9.27;;;8.30;;
2698;SDS011;1359;51.798;12.174;2023-05-07T13:47:44;7.83;;;7.03;;
2698;SDS011;1359;51.798;12.174;2023-05-07T13:50:10;8.30;;;7.43;;
2698;SDS011;1359;51.798;12.174;2023-05-07T13:52:36;9.83;;;8.70;;
2698;SDS011;1359;51.798;12.174;2023-05-07T13:55:02;7.63;;;6.93;;
2698;SDS011;1359;51.798;12.174;2023-05-07T13:57:27;7.80;;;7.00;;
2698;SDS011;1359;51.798;12.174;2023-05-07T13:59:53;10.23;;;8.17;;
2698;SDS011;1359;51.798;12.174;2023-05-07T14:02:18;7.10;;;6.37;;
2698;SDS011;1359;51.798;12.174;2023-05-07T14:04:43;7.60;;;6.80;;
2698;SDS011;1359;51.798;12.174;2023-05-07T14:07:10;7.10;;;6.40;;
2698;SDS011;1359;51.798;12.174;2023-05-07T14:09:35;8.33;;;6.60;;
2698;SDS011;1359;51.798;12.174;2023-05-07T14:12:01;7.97;;;7.10;;
2698;SDS011;1359;51.798;12.174;2023-05-07T14:14:26;7.80;;;7.00;;
2698;SDS011;1359;51.798;12.174;2023-05-07T14:16:52;7.60;;;6.80;;
2698;SDS011;1359;51.798;12.174;2023-05-07T14:19:17;7.10;;;6.50;;
2698;SDS011;1359;51.798;12.174;2023-05-07T14:21:42;11.20;;;7.10;;
2698;SDS011;1359;51.798;12.174;2023-05-07T14:24:08;6.70;;;5.70;;
2698;SDS011;1359;51.798;12.174;2023-05-07T14:26:34;6.77;;;6.10;;
2698;SDS011;1359;51.798;12.174;2023-05-07T14:28:59;7.93;;;6.30;;
2698;SDS011;1359;51.798;12.174;2023-05-07T14:31:25;7.30;;;6.50;;
2698;SDS011;1359;51.798;12.174;2023-05-07T14:33:51;7.47;;;6.70;;
2698;SDS011;1359;51.798;12.174;2023-05-07T14:36:17;6.57;;;5.97;;
2698;SDS011;1359;51.798;12.174;2023-05-07T14:38:43;7.40;;;6.70;;
2698;SDS011;1359;51.798;12.174;2023-05-07T14:41:08;9.23;;;6.77;;
2698;SDS011;1359;51.798;12.174;2023-05-07T14:43:33;5.93;;;5.40;;
2698;SDS011;1359;51.798;12.174;2023-05-07T14:45:59;6.43;;;5.93;;
2698;SDS011;1359;51.798;12.174;2023-05-07T14:48:24;11.40;;;7.43;;
2698;SDS011;1359;51.798;12.174;2023-05-07T14:50:49;6.53;;;5.93;;
2698;SDS011;1359;51.798;12.174;2023-05-07T14:53:15;6.90;;;6.30;;
2698;SDS011;1359;51.798;12.174;2023-05-07T14:55:40;5.83;;;5.27;;
2698;SDS011;1359;51.798;12.174;2023-05-07T14:58:06;7.47;;;6.77;;
2698;SDS011;1359;51.798;12.174;2023-05-07T15:00:31;7.67;;;4.97;;
2698;SDS011;1359;51.798;12.174;2023-05-07T15:03:01;6.07;;;5.00;;